createdAt,value
2022-07-25T00:00:31.841Z,100977.16
2022-07-25T00:03:00.005Z,100980.69
2022-07-25T00:05:28.299Z,100985.13
2022-07-25T00:07:57.698Z,100979.84
2022-07-25T00:10:25.856Z,100954.19
2022-07-25T00:12:53.729Z,100975.44
2022-07-25T00:15:21.681Z,100967.50
2022-07-25T00:17:49.671Z,100971.94
2022-07-25T00:20:17.643Z,100972.81
2022-07-25T00:22:45.694Z,100961.34
2022-07-25T00:25:15.062Z,100964.00
2022-07-25T00:27:43.018Z,100968.44
2022-07-25T00:30:12.070Z,100963.16
2022-07-25T00:32:40.031Z,100964.03
2022-07-25T00:35:08.460Z,100964.91
2022-07-25T00:37:36.597Z,100957.84
2022-07-25T00:40:05.367Z,100953.44
2022-07-25T00:42:35.058Z,100941.94
2022-07-25T00:45:03.096Z,100945.47
2022-07-25T00:47:31.466Z,100949.91
2022-07-25T00:49:59.409Z,100952.56
2022-07-25T00:52:27.676Z,100946.34
2022-07-25T00:54:56.847Z,100938.41
2022-07-25T00:57:24.860Z,100914.53
2022-07-25T00:59:54.174Z,100941.94
2022-07-25T01:02:22.423Z,100897.72
2022-07-25T01:04:50.386Z,100940.16
2022-07-25T01:07:18.615Z,100941.06
2022-07-25T01:09:47.199Z,100915.41
2022-07-25T01:12:15.105Z,100939.28
2022-07-25T01:14:43.092Z,100931.31
2022-07-25T01:17:13.423Z,100917.16
2022-07-25T01:19:41.350Z,100917.16
2022-07-25T01:22:11.199Z,100915.41
2022-07-25T01:24:40.861Z,100925.13
2022-07-25T01:27:08.923Z,100922.47
2022-07-25T01:29:45.394Z,100917.16
2022-07-25T01:32:13.633Z,100880.06
2022-07-25T01:34:41.487Z,100922.47
2022-07-25T01:37:10.825Z,100915.41
2022-07-25T01:39:38.707Z,100914.53
2022-07-25T01:42:07.570Z,100911.88
2022-07-25T01:44:35.645Z,100903.03
2022-07-25T01:47:03.529Z,100905.69
2022-07-25T01:49:31.576Z,100903.03
2022-07-25T01:51:59.796Z,100898.59
2022-07-25T01:54:29.231Z,100899.50
2022-07-25T01:56:57.110Z,100899.50
2022-07-25T01:59:25.182Z,100888.88
2022-07-25T02:01:53.081Z,100892.41
2022-07-25T02:04:21.129Z,100884.47
2022-07-25T02:06:49.649Z,100888.88
2022-07-25T02:09:17.515Z,100873.84
2022-07-25T02:11:46.849Z,100877.38
2022-07-25T02:14:14.914Z,100882.69
2022-07-25T02:16:43.021Z,100878.25
2022-07-25T02:19:10.977Z,100857.94
2022-07-25T02:21:39.177Z,100860.59
2022-07-25T02:24:08.144Z,100875.59
2022-07-25T02:26:36.294Z,100849.97
2022-07-25T02:29:05.976Z,100859.66
2022-07-25T02:31:33.818Z,100853.47
2022-07-25T02:34:01.764Z,100835.81
2022-07-25T02:36:29.784Z,100834.91
2022-07-25T02:38:57.688Z,100849.94
2022-07-25T02:41:25.528Z,100851.69
2022-07-25T02:43:53.729Z,100856.13
2022-07-25T02:46:23.123Z,100849.94
2022-07-25T02:48:51.150Z,100848.16
2022-07-25T02:51:19.808Z,100856.13
2022-07-25T02:53:57.113Z,100845.53
2022-07-25T02:56:26.082Z,100849.94
2022-07-25T02:58:57.548Z,100862.31
2022-07-25T03:01:27.318Z,100866.72
2022-07-25T03:03:55.302Z,100866.72
2022-07-25T03:06:23.385Z,100863.16
2022-07-25T03:08:51.539Z,100863.16
2022-07-25T03:11:19.473Z,100865.78
2022-07-25T03:13:47.569Z,100872.84
2022-07-25T03:16:15.821Z,100866.66
2022-07-25T03:18:45.095Z,100857.81
2022-07-25T03:21:13.006Z,100862.22
2022-07-25T03:23:41.213Z,100860.47
2022-07-25T03:26:09.079Z,100859.56
2022-07-25T03:28:36.924Z,100859.53
2022-07-25T03:31:06.319Z,100827.72
2022-07-25T03:33:35.053Z,100802.97
2022-07-25T03:36:04.966Z,100841.78
2022-07-25T03:38:32.996Z,100832.03
2022-07-25T03:41:00.960Z,100832.00
2022-07-25T03:43:29.756Z,100839.97
2022-07-25T03:45:57.998Z,100827.63
2022-07-25T03:48:25.974Z,100841.72
2022-07-25T03:50:53.916Z,100854.09
2022-07-25T03:53:23.592Z,100839.03
2022-07-25T03:55:51.601Z,100835.50
2022-07-25T03:58:19.554Z,100836.38
2022-07-25T04:00:48.859Z,100833.72
2022-07-25T04:03:17.043Z,100834.63
2022-07-25T04:05:47.533Z,100845.22
2022-07-25T04:08:15.864Z,100814.22
2022-07-25T04:10:45.299Z,100816.81
2022-07-25T04:13:13.255Z,100810.63
2022-07-25T04:15:41.474Z,100815.06
2022-07-25T04:18:10.123Z,100815.94
2022-07-25T04:20:42.672Z,100799.13
2022-07-25T04:23:10.633Z,100815.00
2022-07-25T04:25:38.690Z,100808.78
2022-07-25T04:28:08.008Z,100807.91
2022-07-25T04:30:35.979Z,100814.97
2022-07-25T04:33:04.170Z,100747.88
2022-07-25T04:35:32.276Z,100798.16
2022-07-25T04:38:00.290Z,100797.19
2022-07-25T04:40:28.254Z,100793.63
2022-07-25T04:42:56.542Z,100798.91
2022-07-25T04:45:26.240Z,100805.09
2022-07-25T04:47:54.279Z,100795.34
2022-07-25T04:50:24.915Z,100791.81
2022-07-25T04:52:54.070Z,100796.19
2022-07-25T04:55:22.343Z,100786.38
2022-07-25T04:57:50.431Z,100789.78
2022-07-25T05:00:19.166Z,100796.78
2022-07-25T05:02:48.432Z,100765.81
2022-07-25T05:05:21.110Z,100794.00
2022-07-25T05:07:50.000Z,100800.13
2022-07-25T05:10:18.186Z,100758.59
2022-07-25T05:12:46.195Z,100770.00
2022-07-25T05:15:14.180Z,100768.16
2022-07-25T05:17:42.105Z,100774.41
2022-07-25T05:20:12.734Z,100770.00
2022-07-25T05:22:40.718Z,100773.56
2022-07-25T05:25:10.970Z,100766.44
2022-07-25T05:27:39.872Z,100751.38
2022-07-25T05:30:10.907Z,100757.50
2022-07-25T05:32:39.593Z,100616.50
2022-07-25T05:35:09.504Z,100750.44
2022-07-25T05:37:39.344Z,100741.50
2022-07-25T05:40:08.548Z,100733.56
2022-07-25T05:42:36.712Z,100748.66
2022-07-25T05:45:05.586Z,100752.16
2022-07-25T05:47:33.649Z,100730.81
2022-07-25T05:50:02.289Z,100741.28
2022-07-25T05:52:30.472Z,100710.31
2022-07-25T05:54:59.910Z,100732.34
2022-07-25T05:57:28.030Z,100732.34
2022-07-25T05:59:56.064Z,100735.06
2022-07-25T06:02:24.300Z,100735.00
2022-07-25T06:04:52.253Z,100725.16
2022-07-25T06:07:20.233Z,100710.84
2022-07-25T06:09:48.187Z,100720.63
2022-07-25T06:12:17.514Z,100709.13
2022-07-25T06:14:45.469Z,100717.03
2022-07-25T06:17:13.559Z,100710.78
2022-07-25T06:19:41.506Z,100710.75
2022-07-25T06:22:09.491Z,100716.94
2022-07-25T06:24:37.510Z,100708.94
2022-07-25T06:27:05.938Z,100700.13
2022-07-25T06:29:35.293Z,100635.75
2022-07-25T06:32:03.240Z,100700.06
2022-07-25T06:34:31.552Z,100700.00
2022-07-25T06:36:59.484Z,100692.75
2022-07-25T06:39:28.700Z,100673.13
2022-07-25T06:41:57.444Z,100688.91
2022-07-25T06:44:25.362Z,100627.28
2022-07-25T06:46:54.730Z,100686.13
2022-07-25T06:49:22.856Z,100684.25
2022-07-25T06:51:50.853Z,100688.66
2022-07-25T06:54:19.258Z,100684.91
2022-07-25T06:56:47.514Z,100689.88
2022-07-25T06:59:15.652Z,100601.63
2022-07-25T07:01:48.204Z,100696.31
2022-07-25T07:04:20.605Z,100704.53
2022-07-25T07:06:48.741Z,100643.88
2022-07-25T07:09:16.660Z,100699.25
2022-07-25T07:11:44.649Z,100696.53
2022-07-25T07:14:12.600Z,100660.41
2022-07-25T07:16:41.408Z,100684.13
2022-07-25T07:19:11.100Z,100690.16
2022-07-25T07:21:40.488Z,100682.84
2022-07-25T07:24:18.521Z,100680.78
2022-07-25T07:26:52.952Z,100681.38
2022-07-25T07:29:20.846Z,100675.59
2022-07-25T07:31:48.856Z,100669.13
2022-07-25T07:34:17.189Z,100677.44
2022-07-25T07:36:46.471Z,100665.88
2022-07-25T07:39:14.688Z,100665.53
2022-07-25T07:41:42.886Z,100661.00
2022-07-25T07:44:11.810Z,100660.66
2022-07-25T07:46:39.742Z,100674.00
2022-07-25T07:49:08.212Z,100671.81
2022-07-25T07:51:36.497Z,100664.19
2022-07-25T07:54:23.994Z,100663.78
2022-07-25T07:56:52.015Z,100660.94
2022-07-25T07:59:20.094Z,100666.09
2022-07-25T08:01:48.138Z,100664.56
2022-07-25T08:04:16.448Z,100669.50
2022-07-25T08:06:44.453Z,100663.09
2022-07-25T08:09:14.057Z,100648.38
2022-07-25T08:11:42.078Z,100658.91
2022-07-25T08:14:10.542Z,100666.34
2022-07-25T08:16:38.864Z,100655.94
2022-07-25T08:19:06.823Z,100648.31
2022-07-25T08:21:34.788Z,100653.75
2022-07-25T08:24:03.128Z,100641.16
2022-07-25T08:26:33.969Z,100643.00
2022-07-25T08:29:18.261Z,100647.63
2022-07-25T08:31:47.088Z,100649.41
2022-07-25T08:34:15.198Z,100646.22
2022-07-25T08:36:43.150Z,100609.19
2022-07-25T08:39:11.186Z,100644.22
2022-07-25T08:41:42.370Z,100645.59
2022-07-25T08:44:10.806Z,100648.72
2022-07-25T08:46:41.880Z,100650.25
2022-07-25T08:49:10.688Z,100649.34
2022-07-25T08:51:40.954Z,100654.47
2022-07-25T08:54:10.497Z,100611.59
2022-07-25T08:56:38.829Z,100660.47
2022-07-25T08:59:09.835Z,100653.13
2022-07-25T09:01:40.651Z,100651.06
2022-07-25T09:04:10.307Z,100648.94
2022-07-25T09:06:38.735Z,100648.91
2022-07-25T09:09:08.747Z,100649.34
2022-07-25T09:11:38.275Z,100648.88
2022-07-25T09:14:14.743Z,100649.81
2022-07-25T09:16:45.061Z,100641.09
2022-07-25T09:19:16.283Z,100639.47
2022-07-25T09:21:46.012Z,100632.13
2022-07-25T09:24:17.018Z,100635.25
2022-07-25T09:26:49.548Z,100638.34
2022-07-25T09:29:21.602Z,100639.25
2022-07-25T09:31:50.657Z,100634.63
2022-07-25T09:34:31.297Z,100623.94
2022-07-25T09:36:59.584Z,100627.25
2022-07-25T09:39:35.334Z,100632.56
2022-07-25T09:42:04.276Z,100620.13
2022-07-25T09:44:33.502Z,100625.94
2022-07-25T09:47:12.020Z,100559.91
2022-07-25T09:49:44.257Z,100621.06
2022-07-25T09:52:13.231Z,100617.66
2022-07-25T09:54:41.784Z,100589.53
2022-07-25T09:57:09.742Z,100611.28
2022-07-25T09:59:39.677Z,100615.63
2022-07-25T10:02:10.731Z,100615.28
2022-07-25T10:04:46.173Z,100621.97
2022-07-25T10:07:16.876Z,100614.41
2022-07-25T10:09:47.008Z,100595.06
2022-07-25T10:12:19.423Z,100608.66
2022-07-25T10:15:08.578Z,100603.69
2022-07-25T10:17:37.988Z,100607.06
2022-07-25T10:20:08.426Z,100594.31
2022-07-25T10:22:55.691Z,100596.53
2022-07-25T10:25:24.938Z,100603.03
2022-07-25T10:28:00.206Z,100605.75
2022-07-25T10:30:36.268Z,100587.75
2022-07-25T10:33:07.722Z,100598.03
2022-07-25T10:35:35.674Z,100600.59
2022-07-25T10:38:06.671Z,100596.13
2022-07-25T10:40:38.313Z,100586.38
2022-07-25T10:43:10.963Z,100560.66
2022-07-25T10:45:42.809Z,100606.25
2022-07-25T10:48:13.070Z,100606.75
2022-07-25T10:50:55.835Z,100605.28
2022-07-25T10:53:38.499Z,100608.81
2022-07-25T10:56:11.470Z,100600.50
2022-07-25T10:58:51.102Z,100615.31
2022-07-25T11:01:27.213Z,100609.88
2022-07-25T11:03:56.585Z,100608.56
2022-07-25T11:06:33.138Z,100597.34
2022-07-25T11:09:01.512Z,100608.00
2022-07-25T11:11:37.425Z,100608.38
2022-07-25T11:14:07.037Z,100582.84
2022-07-25T11:16:36.609Z,100599.00
2022-07-25T11:19:04.977Z,100598.41
2022-07-25T11:21:33.006Z,100578.56
2022-07-25T11:24:00.990Z,100590.91
2022-07-25T11:26:28.931Z,100596.44
2022-07-25T11:28:56.842Z,100585.91
2022-07-25T11:33:54.603Z,100583.69
2022-07-25T11:36:22.619Z,100580.34
2022-07-25T11:38:51.151Z,100567.31
2022-07-25T11:41:30.548Z,100549.16
2022-07-25T11:43:58.500Z,100586.00
2022-07-25T11:46:27.012Z,100580.66
2022-07-25T11:49:06.468Z,100586.81
2022-07-25T11:51:38.672Z,100578.81
2022-07-25T11:54:12.079Z,100580.50
2022-07-25T11:56:42.922Z,100573.16
2022-07-25T11:59:11.699Z,100574.06
2022-07-25T12:01:41.914Z,100580.25
2022-07-25T12:04:14.327Z,100548.66
2022-07-25T12:06:42.889Z,100575.03
2022-07-25T12:09:18.794Z,100551.56
2022-07-25T12:11:48.884Z,100576.44
2022-07-25T12:14:17.461Z,100513.50
2022-07-25T12:16:45.465Z,100549.72
2022-07-25T12:19:23.266Z,100548.75
2022-07-25T12:21:51.165Z,100559.53
2022-07-25T12:24:19.071Z,100560.69
2022-07-25T12:26:47.242Z,100552.97
2022-07-25T12:29:15.157Z,100553.19
2022-07-25T12:31:42.979Z,100546.97
2022-07-25T12:34:11.066Z,100505.28
2022-07-25T12:36:44.085Z,100525.66
2022-07-25T12:39:12.810Z,100529.56
2022-07-25T12:41:42.675Z,100520.56
2022-07-25T12:44:11.011Z,100482.47
2022-07-25T12:46:45.816Z,100343.19
2022-07-25T12:49:17.108Z,100507.84
2022-07-25T12:51:46.741Z,100501.91
2022-07-25T12:54:21.763Z,100510.41
2022-07-25T12:56:51.023Z,100520.94
2022-07-25T12:59:18.992Z,100504.22
2022-07-25T13:01:46.945Z,100515.34
2022-07-25T13:04:15.242Z,100507.41
2022-07-25T13:06:43.233Z,100496.34
2022-07-25T13:09:12.502Z,100501.75
2022-07-25T13:11:40.700Z,100500.19
2022-07-25T13:14:08.755Z,100507.88
2022-07-25T13:16:37.991Z,100488.88
2022-07-25T13:19:06.658Z,100495.47
2022-07-25T13:21:35.120Z,100494.88
2022-07-25T13:24:03.028Z,100492.44
2022-07-25T13:26:32.911Z,100489.22
2022-07-25T13:29:01.031Z,100494.47
2022-07-25T13:31:29.853Z,100477.34
2022-07-25T13:33:58.465Z,100477.16
2022-07-25T13:36:27.348Z,100457.38
2022-07-25T13:38:55.379Z,100472.97
2022-07-25T13:41:23.442Z,100468.09
2022-07-25T13:43:52.705Z,100456.19
2022-07-25T13:46:20.703Z,100463.63
2022-07-25T13:48:49.718Z,100460.25
2022-07-25T13:51:17.817Z,100450.03
2022-07-25T13:53:45.967Z,100448.09
2022-07-25T13:56:14.330Z,100431.47
2022-07-25T13:58:42.215Z,100414.06
2022-07-25T14:01:12.878Z,100429.34
2022-07-25T14:03:41.190Z,100440.19
2022-07-25T14:06:11.427Z,100429.69
2022-07-25T14:08:41.511Z,100426.53
2022-07-25T14:11:09.731Z,100434.78
2022-07-25T14:13:38.030Z,100431.56
2022-07-25T14:16:06.564Z,100422.88
2022-07-25T14:18:36.089Z,100434.81
2022-07-25T14:21:04.085Z,100430.53
2022-07-25T14:23:32.013Z,100401.88
2022-07-25T14:26:00.263Z,100426.13
2022-07-25T14:28:28.221Z,100405.88
2022-07-25T14:30:56.643Z,100419.78
2022-07-25T14:33:24.965Z,100428.63
2022-07-25T14:35:54.440Z,100344.28
2022-07-25T14:38:22.515Z,100428.03
2022-07-25T14:40:50.524Z,100417.66
2022-07-25T14:43:18.482Z,100419.66
2022-07-25T14:45:46.450Z,100415.47
2022-07-25T14:48:14.365Z,100336.31
2022-07-25T14:50:42.404Z,100417.84
2022-07-25T14:53:12.875Z,100391.13
2022-07-25T14:55:41.257Z,100407.75
2022-07-25T14:58:09.399Z,100381.00
2022-07-25T15:00:41.792Z,100394.06
2022-07-25T15:03:10.533Z,100384.75
2022-07-25T15:05:39.524Z,100401.34
2022-07-25T15:08:10.149Z,100378.22
2022-07-25T15:10:39.803Z,100401.25
2022-07-25T15:13:29.849Z,100389.88
2022-07-25T15:15:56.310Z,100401.75
2022-07-25T15:18:24.185Z,100392.94
2022-07-25T15:20:52.231Z,100382.47
2022-07-25T15:23:21.219Z,100393.22
2022-07-25T15:26:06.041Z,100390.06
2022-07-25T15:28:34.862Z,100387.75
2022-07-25T15:31:03.082Z,100385.59
2022-07-25T15:33:31.462Z,100392.28
2022-07-25T15:36:00.296Z,100385.75
2022-07-25T15:38:29.115Z,100354.47
2022-07-25T15:40:58.630Z,100387.69
2022-07-25T15:43:27.450Z,100385.00
2022-07-25T15:45:55.558Z,100393.03
2022-07-25T15:48:23.737Z,100331.81
2022-07-25T15:50:52.705Z,100376.72
2022-07-25T15:53:20.780Z,100371.63
2022-07-25T15:55:48.664Z,100303.09
2022-07-25T15:58:18.214Z,100353.06
2022-07-25T16:00:46.282Z,100309.56
2022-07-25T16:03:14.928Z,100339.41
2022-07-25T16:05:45.375Z,100329.06
2022-07-25T16:08:13.387Z,100340.72
2022-07-25T16:10:41.731Z,100332.41
2022-07-25T16:13:09.728Z,100333.56
2022-07-25T16:15:39.786Z,100335.47
2022-07-25T16:18:07.776Z,100332.06
2022-07-25T16:20:35.886Z,100336.53
2022-07-25T16:23:04.207Z,100335.75
2022-07-25T16:25:32.327Z,100338.47
2022-07-25T16:28:01.058Z,100334.16
2022-07-25T16:30:29.823Z,100282.47
2022-07-25T16:32:59.194Z,100330.56
2022-07-25T16:35:27.313Z,100330.47
2022-07-25T16:37:55.338Z,100323.28
2022-07-25T16:40:27.359Z,100321.41
2022-07-25T16:42:59.893Z,100310.66
2022-07-25T16:45:28.075Z,100304.44
2022-07-25T16:47:56.320Z,100304.44
2022-07-25T16:50:25.850Z,100288.47
2022-07-25T16:52:54.354Z,100291.09
2022-07-25T16:55:22.456Z,100286.56
2022-07-25T16:57:50.629Z,100282.09
2022-07-25T17:00:18.801Z,100272.31
2022-07-25T17:02:46.822Z,100234.66
2022-07-25T17:05:14.896Z,100279.31
2022-07-25T17:07:44.258Z,100270.38
2022-07-25T17:10:12.113Z,100268.56
2022-07-25T17:12:40.233Z,100274.75
2022-07-25T17:15:09.459Z,100270.38
2022-07-25T17:17:37.342Z,100239.06
2022-07-25T17:20:06.335Z,100270.59
2022-07-25T17:22:34.354Z,100259.28
2022-07-25T17:25:03.651Z,100264.78
2022-07-25T17:27:31.882Z,100265.19
2022-07-25T17:29:59.892Z,100247.81
2022-07-25T17:32:29.887Z,100260.09
2022-07-25T17:34:58.309Z,100258.47
2022-07-25T17:37:27.720Z,100272.88
2022-07-25T17:39:56.253Z,100259.03
2022-07-25T17:42:25.896Z,100240.00
2022-07-25T17:44:54.222Z,100259.44
2022-07-25T17:47:23.587Z,100271.94
2022-07-25T17:49:51.739Z,100282.81
2022-07-25T17:52:19.643Z,100283.81
2022-07-25T17:54:47.557Z,100293.81
2022-07-25T17:57:15.810Z,100301.06
2022-07-25T17:59:45.141Z,100298.50
2022-07-25T18:02:14.251Z,100276.47
2022-07-25T18:04:42.337Z,100268.56
2022-07-25T18:07:10.682Z,100282.63
2022-07-25T18:09:38.588Z,100271.22
2022-07-25T18:12:07.789Z,100263.31
2022-07-25T18:14:35.701Z,100275.50
2022-07-25T18:17:06.227Z,100273.75
2022-07-25T18:19:34.458Z,100286.28
2022-07-25T18:22:02.299Z,100302.47
2022-07-25T18:24:30.931Z,100276.91
2022-07-25T18:26:59.724Z,100266.41
2022-07-25T18:29:27.737Z,100202.84
2022-07-25T18:31:55.651Z,100267.13
2022-07-25T18:34:25.180Z,100250.44
2022-07-25T18:36:53.138Z,100235.63
2022-07-25T18:39:21.020Z,100250.44
2022-07-25T18:41:49.164Z,100250.47
2022-07-25T18:44:17.616Z,100255.00
2022-07-25T18:46:46.927Z,100255.00
2022-07-25T18:49:15.229Z,100250.66
2022-07-25T18:51:44.630Z,100257.84
2022-07-25T18:54:12.471Z,100254.47
2022-07-25T18:56:40.633Z,100227.22
2022-07-25T18:59:09.292Z,100242.00
2022-07-25T19:01:37.706Z,100250.97
2022-07-25T19:04:06.748Z,100183.47
2022-07-25T19:06:35.073Z,100236.09
2022-07-25T19:09:04.954Z,100242.19
2022-07-25T19:11:33.454Z,100244.00
2022-07-25T19:14:01.430Z,100243.13
2022-07-25T19:16:29.336Z,100242.25
2022-07-25T19:18:57.590Z,100203.72
2022-07-25T19:21:25.867Z,100230.72
2022-07-25T19:23:53.842Z,100223.78
2022-07-25T19:26:23.498Z,100185.91
2022-07-25T19:28:51.755Z,100218.22
2022-07-25T19:31:19.739Z,100214.63
2022-07-25T19:33:48.121Z,100195.38
2022-07-25T19:36:16.059Z,100207.53
2022-07-25T19:38:43.999Z,100212.03
2022-07-25T19:41:12.207Z,100211.22
2022-07-25T19:43:41.817Z,100203.31
2022-07-25T19:46:09.804Z,100204.22
2022-07-25T19:48:38.307Z,100187.38
2022-07-25T19:51:06.523Z,100202.50
2022-07-25T19:53:34.413Z,100206.94
2022-07-25T19:56:02.652Z,100194.63
2022-07-25T19:58:34.100Z,100213.16
2022-07-25T20:01:06.236Z,100201.63
2022-07-25T20:03:34.211Z,100194.75
2022-07-25T20:06:07.576Z,100207.00
2022-07-25T20:08:36.419Z,100201.72
2022-07-25T20:11:04.436Z,100185.09
2022-07-25T20:13:32.332Z,100199.16
2022-07-25T20:16:00.622Z,100187.63
2022-07-25T20:18:29.855Z,100177.91
2022-07-25T20:20:57.846Z,100169.91
2022-07-25T20:23:26.925Z,100166.41
2022-07-25T20:25:55.089Z,100129.47
2022-07-25T20:28:22.937Z,100133.97
2022-07-25T20:30:51.157Z,100152.28
2022-07-25T20:33:19.547Z,100153.13
2022-07-25T20:35:48.797Z,100158.53
2022-07-25T20:38:17.029Z,100147.94
2022-07-25T20:40:49.589Z,100140.94
2022-07-25T20:43:18.359Z,100150.56
2022-07-25T20:45:47.524Z,100156.81
2022-07-25T20:48:15.683Z,100141.84
2022-07-25T20:50:44.765Z,100162.16
2022-07-25T20:53:14.188Z,100155.06
2022-07-25T20:55:42.341Z,100117.44
2022-07-25T20:58:10.658Z,100165.69
2022-07-25T21:00:38.582Z,100151.53
2022-07-25T21:03:08.096Z,100149.78
2022-07-25T21:05:37.933Z,100140.94
2022-07-25T21:08:06.443Z,100139.09
2022-07-25T21:10:35.872Z,100130.25
2022-07-25T21:13:04.066Z,100132.00
2022-07-25T21:15:32.056Z,100131.09
2022-07-25T21:18:00.093Z,100093.47
2022-07-25T21:20:28.522Z,100138.16
2022-07-25T21:22:56.414Z,100074.03
2022-07-25T21:25:24.401Z,100139.03
2022-07-25T21:27:53.841Z,100129.28
2022-07-25T21:30:21.765Z,100123.94
2022-07-25T21:32:49.741Z,100110.66
2022-07-25T21:35:18.362Z,100123.00
2022-07-25T21:37:46.266Z,100123.81
2022-07-25T21:40:14.988Z,100116.75
2022-07-25T21:42:43.602Z,100117.56
2022-07-25T21:45:13.616Z,100122.81
2022-07-25T21:47:41.509Z,100126.31
2022-07-25T21:50:28.358Z,100126.28
2022-07-25T21:52:56.540Z,100124.44
2022-07-25T21:55:25.189Z,100099.09
2022-07-25T21:57:54.158Z,100114.00
2022-07-25T22:00:23.706Z,100122.56
2022-07-25T22:02:51.800Z,100118.97
2022-07-25T22:05:20.864Z,100121.63
2022-07-25T22:07:48.884Z,100106.72
2022-07-25T22:10:19.005Z,100118.09
2022-07-25T22:12:47.097Z,100098.69
2022-07-25T22:15:15.790Z,100046.25
2022-07-25T22:17:49.540Z,100102.16
2022-07-25T22:20:19.225Z,100093.06
2022-07-25T22:22:47.826Z,100082.50
2022-07-25T22:25:16.686Z,99984.50
2022-07-25T22:27:45.242Z,100100.06
2022-07-25T22:30:18.796Z,100095.59
2022-07-25T22:32:49.606Z,100077.88
2022-07-25T22:35:18.087Z,100069.88
2022-07-25T22:37:46.122Z,100076.13
2022-07-25T22:40:14.836Z,100075.28
2022-07-25T22:42:42.790Z,100026.38
2022-07-25T22:45:11.656Z,100070.91
2022-07-25T22:47:39.872Z,100060.28
2022-07-25T22:50:10.880Z,100064.78
2022-07-25T22:52:38.778Z,100061.28
2022-07-25T22:55:07.670Z,100062.19
2022-07-25T22:57:36.983Z,100011.41
2022-07-25T23:00:08.688Z,100058.66
2022-07-25T23:02:36.718Z,100053.38
2022-07-25T23:05:05.281Z,100058.69
2022-07-25T23:07:35.198Z,100040.97
2022-07-25T23:10:03.569Z,100029.66
2022-07-25T23:12:31.440Z,100046.38
2022-07-25T23:14:59.498Z,100041.97
2022-07-25T23:17:27.425Z,100047.56
2022-07-25T23:19:56.819Z,100023.81
2022-07-25T23:22:26.918Z,100029.28
2022-07-25T23:24:56.301Z,100032.09
2022-07-25T23:27:24.976Z,100046.38
2022-07-25T23:29:52.974Z,100038.34
2022-07-25T23:32:21.074Z,100026.91
2022-07-25T23:34:49.033Z,100026.19
2022-07-25T23:37:17.203Z,100024.56
2022-07-25T23:39:45.195Z,100013.38
2022-07-25T23:42:14.442Z,100006.50
2022-07-25T23:44:44.453Z,99992.69
2022-07-25T23:47:12.652Z,99988.31
2022-07-25T23:49:41.175Z,99991.91
2022-07-25T23:52:09.224Z,99987.53
2022-07-25T23:54:38.676Z,99976.06
2022-07-25T23:57:07.237Z,99977.84
2022-07-25T23:59:37.529Z,99960.34
